createdAt,value
2022-10-18T00:00:52.992Z,8.78
2022-10-18T00:03:59.545Z,9.60
2022-10-18T00:07:05.816Z,9.03
2022-10-18T00:10:11.767Z,9.23
2022-10-18T00:13:18.607Z,8.33
2022-10-18T00:16:21.291Z,9.73
2022-10-18T00:19:28.590Z,9.65
2022-10-18T00:22:34.721Z,8.25
2022-10-18T00:25:40.508Z,9.23
2022-10-18T00:28:47.223Z,8.60
2022-10-18T00:31:53.676Z,9.00
2022-10-18T00:35:00.042Z,8.30
2022-10-18T00:38:05.344Z,8.95
2022-10-18T00:41:11.337Z,9.08
2022-10-18T00:44:23.790Z,8.13
2022-10-18T00:47:30.318Z,8.48
2022-10-18T00:50:36.816Z,8.70
2022-10-18T00:53:41.686Z,8.65
2022-10-18T00:56:46.811Z,8.18
2022-10-18T00:59:53.157Z,7.62
2022-10-18T01:03:00.198Z,9.20
2022-10-18T01:06:05.309Z,8.65
2022-10-18T01:09:22.561Z,9.05
2022-10-18T01:12:55.100Z,7.92
2022-10-18T01:16:14.303Z,8.45
2022-10-18T01:19:26.681Z,8.38
2022-10-18T01:22:52.645Z,8.78
2022-10-18T01:26:37.831Z,9.98
2022-10-18T01:30:05.829Z,10.35
2022-10-18T01:33:23.699Z,9.80
2022-10-18T01:36:41.636Z,9.00
2022-10-18T01:39:49.440Z,10.68
2022-10-18T01:42:55.214Z,9.73
2022-10-18T01:45:54.768Z,10.43
2022-10-18T01:49:00.440Z,11.15
2022-10-18T01:52:05.894Z,11.45
2022-10-18T01:55:13.020Z,11.18
2022-10-18T01:58:38.557Z,11.78
2022-10-18T02:02:06.569Z,16.12
2022-10-18T02:05:25.490Z,11.38
2022-10-18T02:08:51.505Z,12.93
2022-10-18T02:11:58.123Z,12.03
2022-10-18T02:15:05.079Z,12.58
2022-10-18T02:18:10.646Z,10.45
2022-10-18T02:21:17.422Z,10.10
2022-10-18T02:24:24.451Z,10.43
2022-10-18T02:27:29.956Z,11.30
2022-10-18T02:30:38.624Z,9.83
2022-10-18T02:33:49.015Z,10.65
2022-10-18T02:37:14.824Z,9.95
2022-10-18T02:40:22.217Z,10.13
2022-10-18T02:43:27.900Z,10.08
2022-10-18T02:46:34.882Z,11.18
2022-10-18T02:49:40.909Z,11.53
2022-10-18T02:52:46.291Z,11.10
2022-10-18T02:55:52.255Z,11.35
2022-10-18T02:58:57.489Z,12.68
2022-10-18T03:02:02.126Z,13.80
2022-10-18T03:05:08.924Z,14.03
2022-10-18T03:08:15.060Z,11.80
2022-10-18T03:11:21.106Z,13.28
2022-10-18T03:14:26.657Z,12.70
2022-10-18T03:17:31.571Z,11.40
2022-10-18T03:20:37.174Z,11.35
2022-10-18T03:23:43.635Z,11.05
2022-10-18T03:26:50.398Z,10.63
2022-10-18T03:29:57.314Z,11.85
2022-10-18T03:33:03.816Z,11.55
2022-10-18T03:36:09.220Z,12.23
2022-10-18T03:39:14.953Z,11.40
2022-10-18T03:42:20.957Z,11.12
2022-10-18T03:45:29.020Z,11.85
2022-10-18T03:48:35.673Z,12.60
2022-10-18T03:51:42.186Z,12.20
2022-10-18T03:54:48.156Z,11.28
2022-10-18T03:57:54.000Z,12.00
2022-10-18T04:01:00.047Z,11.33
2022-10-18T04:04:06.055Z,11.60
2022-10-18T04:07:12.506Z,12.60
2022-10-18T04:10:19.122Z,11.95
2022-10-18T04:13:24.624Z,11.97
2022-10-18T04:16:31.297Z,13.08
2022-10-18T04:19:37.232Z,13.00
2022-10-18T04:22:42.919Z,12.13
2022-10-18T04:25:48.585Z,11.48
2022-10-18T04:28:54.017Z,10.90
2022-10-18T04:31:59.575Z,11.70
2022-10-18T04:35:05.509Z,12.03
2022-10-18T04:38:11.981Z,11.55
2022-10-18T04:41:17.994Z,11.05
2022-10-18T04:44:24.151Z,11.63
2022-10-18T04:47:29.797Z,12.68
2022-10-18T04:50:36.253Z,14.33
2022-10-18T04:53:44.511Z,15.25
2022-10-18T04:56:51.081Z,15.75
2022-10-18T04:59:56.280Z,17.80
2022-10-18T05:03:02.189Z,15.48
2022-10-18T05:06:07.710Z,15.05
2022-10-18T05:09:14.407Z,14.98
2022-10-18T05:12:20.043Z,40.43
2022-10-18T05:15:26.617Z,45.28
2022-10-18T05:18:33.153Z,30.55
2022-10-18T05:21:39.400Z,25.35
2022-10-18T05:24:44.810Z,22.25
2022-10-18T05:27:50.624Z,22.10
2022-10-18T05:30:57.033Z,20.55
2022-10-18T05:34:02.602Z,17.20
2022-10-18T05:37:08.924Z,16.65
2022-10-18T05:40:15.552Z,15.53
2022-10-18T05:43:21.554Z,16.27
2022-10-18T05:46:28.057Z,15.58
2022-10-18T05:49:32.996Z,13.80
2022-10-18T05:52:38.198Z,11.45
2022-10-18T05:55:44.285Z,12.50
2022-10-18T05:58:50.210Z,11.43
2022-10-18T06:01:57.212Z,11.35
2022-10-18T06:05:02.727Z,12.65
2022-10-18T06:08:10.801Z,11.38
2022-10-18T06:11:22.099Z,11.93
2022-10-18T06:14:21.247Z,11.85
2022-10-18T06:20:36.439Z,12.13
2022-10-18T06:23:46.161Z,12.53
2022-10-18T06:26:51.831Z,14.25
2022-10-18T06:29:58.863Z,13.78
2022-10-18T06:33:05.247Z,12.93
2022-10-18T06:36:17.228Z,14.38
2022-10-18T06:39:40.979Z,13.25
2022-10-18T06:42:55.280Z,13.32
2022-10-18T06:45:57.404Z,11.63
2022-10-18T06:49:02.598Z,12.00
2022-10-18T06:52:09.885Z,11.88
2022-10-18T06:55:17.231Z,10.60
2022-10-18T06:58:23.049Z,9.53
2022-10-18T07:01:30.454Z,9.88
2022-10-18T07:04:37.275Z,8.50
2022-10-18T07:07:50.628Z,8.38
2022-10-18T07:10:56.316Z,7.87
2022-10-18T07:14:01.954Z,7.12
2022-10-18T07:17:08.562Z,7.55
2022-10-18T07:20:18.299Z,7.37
2022-10-18T07:23:24.941Z,8.40
2022-10-18T07:26:44.506Z,8.18
2022-10-18T07:29:49.681Z,13.27
2022-10-18T07:32:55.506Z,14.10
2022-10-18T07:36:04.532Z,10.10
2022-10-18T07:39:13.879Z,7.40
2022-10-18T07:42:19.243Z,6.92
2022-10-18T07:45:25.645Z,6.78
2022-10-18T07:48:31.978Z,6.55
2022-10-18T07:51:40.268Z,7.25
2022-10-18T07:54:46.479Z,5.87
2022-10-18T07:57:51.796Z,5.70
2022-10-18T08:00:58.674Z,6.45
2022-10-18T08:04:09.795Z,6.03
2022-10-18T08:07:17.227Z,7.00
2022-10-18T08:10:24.197Z,7.33
2022-10-18T08:13:29.534Z,7.17
2022-10-18T08:16:39.419Z,7.05
2022-10-18T08:19:52.900Z,6.97
2022-10-18T08:22:51.515Z,6.62
2022-10-18T08:25:57.132Z,6.42
2022-10-18T08:29:21.126Z,5.90
2022-10-18T08:32:12.843Z,5.67
2022-10-18T08:35:17.837Z,5.47
2022-10-18T08:38:24.947Z,5.12
2022-10-18T08:41:35.318Z,4.92
2022-10-18T08:44:46.882Z,4.83
2022-10-18T08:48:00.730Z,4.60
2022-10-18T08:51:06.799Z,4.42
2022-10-18T08:54:28.252Z,4.10
2022-10-18T08:57:35.097Z,3.83
2022-10-18T09:00:45.098Z,3.75
2022-10-18T09:04:22.627Z,3.80
2022-10-18T09:08:05.866Z,3.70
2022-10-18T09:11:38.850Z,4.12
2022-10-18T09:15:10.293Z,3.20
2022-10-18T09:18:57.445Z,4.10
2022-10-18T09:22:10.533Z,3.75
2022-10-18T09:25:53.076Z,3.45
2022-10-18T09:29:12.598Z,3.62
2022-10-18T09:32:42.301Z,3.70
2022-10-18T09:35:58.101Z,4.42
2022-10-18T09:39:07.089Z,3.80
2022-10-18T09:42:23.430Z,3.92
2022-10-18T09:45:49.139Z,4.12
2022-10-18T09:49:04.324Z,3.70
2022-10-18T09:52:10.958Z,4.08
2022-10-18T09:55:32.398Z,3.62
2022-10-18T09:58:31.807Z,3.77
2022-10-18T10:01:40.852Z,3.70
2022-10-18T10:04:46.476Z,3.22
2022-10-18T10:07:58.798Z,3.25
2022-10-18T10:11:04.686Z,3.80
2022-10-18T10:14:33.444Z,3.55
2022-10-18T10:17:39.986Z,3.35
2022-10-18T10:20:53.206Z,3.70
2022-10-18T10:24:07.334Z,3.50
2022-10-18T10:27:16.771Z,3.35
2022-10-18T10:30:37.659Z,3.47
2022-10-18T10:33:51.523Z,2.98
2022-10-18T10:37:06.293Z,3.27
2022-10-18T10:40:36.788Z,3.30
2022-10-18T10:43:52.564Z,3.05
2022-10-18T10:47:00.273Z,3.55
2022-10-18T10:50:05.821Z,3.60
2022-10-18T10:53:21.600Z,3.33
2022-10-18T10:56:38.341Z,3.50
2022-10-18T10:59:46.979Z,3.95
2022-10-18T11:03:00.676Z,4.42
2022-10-18T11:06:04.670Z,4.65
2022-10-18T11:09:10.783Z,4.65
2022-10-18T11:12:39.847Z,4.83
2022-10-18T11:15:56.186Z,4.42
2022-10-18T11:19:03.587Z,3.85
2022-10-18T11:22:09.895Z,4.05
2022-10-18T11:25:15.861Z,4.00
2022-10-18T11:28:56.714Z,4.17
2022-10-18T11:32:35.448Z,4.37
2022-10-18T11:36:00.280Z,4.75
2022-10-18T11:39:24.413Z,4.47
2022-10-18T11:42:40.292Z,5.25
2022-10-18T11:45:56.014Z,4.28
2022-10-18T11:49:33.883Z,4.20
2022-10-18T11:52:48.985Z,4.25
2022-10-18T11:56:22.855Z,3.75
2022-10-18T11:59:52.247Z,3.90
2022-10-18T12:03:36.409Z,3.25
2022-10-18T12:06:48.075Z,3.72
2022-10-18T12:13:09.228Z,2.70
2022-10-18T12:16:16.908Z,2.58
2022-10-18T12:19:34.509Z,2.70
2022-10-18T12:22:57.107Z,2.37
2022-10-18T12:26:10.981Z,2.72
2022-10-18T12:29:48.046Z,2.52
2022-10-18T12:33:03.354Z,3.33
2022-10-18T12:36:22.086Z,3.67
2022-10-18T12:39:43.652Z,3.10
2022-10-18T12:42:38.620Z,3.17
2022-10-18T12:45:47.947Z,3.00
2022-10-18T12:48:58.411Z,3.23
2022-10-18T12:52:18.804Z,2.72
2022-10-18T12:55:31.960Z,3.50
2022-10-18T12:58:41.769Z,3.17
2022-10-18T13:02:03.672Z,3.65
2022-10-18T13:05:00.731Z,3.92
2022-10-18T13:08:05.437Z,3.10
2022-10-18T13:11:29.135Z,3.67
2022-10-18T13:15:05.861Z,3.67
2022-10-18T13:18:13.504Z,4.42
2022-10-18T13:22:05.632Z,3.50
2022-10-18T13:25:41.264Z,3.80
2022-10-18T13:29:02.823Z,4.15
2022-10-18T13:32:40.250Z,5.00
2022-10-18T13:36:12.842Z,4.22
2022-10-18T13:39:20.549Z,3.92
2022-10-18T13:42:44.194Z,4.00
2022-10-18T13:45:59.822Z,4.20
2022-10-18T13:49:10.330Z,3.80
2022-10-18T13:52:36.018Z,3.65
2022-10-18T13:56:22.805Z,3.72
2022-10-18T13:59:49.659Z,3.67
2022-10-18T14:03:56.991Z,3.58
2022-10-18T14:06:50.423Z,4.03
2022-10-18T14:10:06.319Z,4.78
2022-10-18T14:13:13.174Z,4.67
2022-10-18T14:16:44.505Z,4.45
2022-10-18T14:19:53.485Z,3.90
2022-10-18T14:23:24.989Z,3.62
2022-10-18T14:26:35.619Z,3.42
2022-10-18T14:29:41.394Z,3.35
2022-10-18T14:32:47.062Z,3.52
2022-10-18T14:39:10.672Z,4.17
2022-10-18T14:42:15.673Z,4.42
2022-10-18T14:45:30.967Z,4.35
2022-10-18T14:48:36.453Z,5.60
2022-10-18T14:51:44.332Z,11.30
2022-10-18T14:54:52.354Z,16.77
2022-10-18T14:57:58.222Z,18.07
2022-10-18T15:01:04.014Z,18.77
2022-10-18T15:04:16.647Z,24.35
2022-10-18T15:07:24.034Z,22.40
2022-10-18T15:10:38.999Z,20.82
2022-10-18T15:13:44.266Z,16.15
2022-10-18T15:16:51.061Z,10.38
2022-10-18T15:20:10.343Z,8.68
2022-10-18T15:23:39.615Z,6.60
2022-10-18T15:26:45.141Z,7.08
2022-10-18T15:29:50.740Z,6.95
2022-10-18T15:33:16.290Z,6.08
2022-10-18T15:36:27.314Z,6.08
2022-10-18T15:39:37.773Z,6.33
2022-10-18T15:42:51.837Z,5.60
2022-10-18T15:46:05.282Z,5.58
2022-10-18T15:49:10.683Z,5.97
2022-10-18T15:52:48.288Z,5.92
2022-10-18T15:56:02.110Z,6.35
2022-10-18T15:59:11.436Z,6.65
2022-10-18T16:02:16.593Z,6.70
2022-10-18T16:05:25.144Z,8.35
2022-10-18T16:08:39.257Z,7.20
2022-10-18T16:11:44.513Z,7.92
2022-10-18T16:14:49.934Z,9.30
2022-10-18T16:17:57.032Z,7.97
2022-10-18T16:21:04.432Z,8.43
2022-10-18T16:24:09.940Z,9.10
2022-10-18T16:27:15.921Z,7.75
2022-10-18T16:30:34.462Z,9.05
2022-10-18T16:33:39.392Z,9.48
2022-10-18T16:36:40.540Z,10.58
2022-10-18T16:39:47.443Z,10.88
2022-10-18T16:42:53.634Z,10.85
2022-10-18T16:45:59.178Z,11.08
2022-10-18T16:49:05.727Z,10.10
2022-10-18T16:52:11.651Z,13.48
2022-10-18T16:55:19.608Z,13.20
2022-10-18T16:58:32.538Z,12.68
2022-10-18T17:01:38.306Z,12.13
2022-10-18T17:04:36.774Z,14.20
2022-10-18T17:07:43.529Z,15.15
2022-10-18T17:10:49.353Z,23.15
2022-10-18T17:13:55.206Z,27.65
2022-10-18T17:17:02.057Z,30.57
2022-10-18T17:20:09.723Z,23.57
2022-10-18T17:23:16.395Z,22.25
2022-10-18T17:26:29.383Z,21.00
2022-10-18T17:29:32.406Z,19.95
2022-10-18T17:32:38.947Z,22.45
2022-10-18T17:35:43.585Z,19.77
2022-10-18T17:38:50.319Z,19.50
2022-10-18T17:41:55.471Z,19.48
2022-10-18T17:45:00.632Z,17.15
2022-10-18T17:48:06.037Z,17.45
2022-10-18T17:51:11.496Z,19.20
2022-10-18T17:54:16.822Z,19.07
2022-10-18T17:57:23.382Z,24.15
2022-10-18T18:00:31.916Z,31.33
2022-10-18T18:03:38.451Z,33.13
2022-10-18T18:06:47.886Z,28.17
2022-10-18T18:09:53.688Z,24.18
2022-10-18T18:13:01.126Z,23.45
2022-10-18T18:16:05.482Z,20.70
2022-10-18T18:19:12.603Z,21.45
2022-10-18T18:22:18.871Z,22.07
2022-10-18T18:25:24.564Z,22.70
2022-10-18T18:28:29.710Z,22.32
2022-10-18T18:31:40.097Z,22.27
2022-10-18T18:34:43.907Z,22.55
2022-10-18T18:37:49.409Z,25.10
2022-10-18T18:40:56.853Z,25.20
2022-10-18T18:44:09.784Z,28.10
2022-10-18T18:50:23.306Z,27.02
2022-10-18T18:53:29.746Z,25.65
2022-10-18T18:56:38.785Z,24.75
2022-10-18T18:59:44.258Z,24.90
2022-10-18T19:02:50.493Z,24.75
2022-10-18T19:05:58.498Z,27.15
2022-10-18T19:09:11.405Z,25.45
2022-10-18T19:12:20.514Z,29.30
2022-10-18T19:15:26.782Z,29.07
2022-10-18T19:18:33.214Z,28.32
2022-10-18T19:21:42.463Z,25.97
2022-10-18T19:24:48.527Z,24.65
2022-10-18T19:27:54.290Z,23.98
2022-10-18T19:31:01.877Z,21.77
2022-10-18T19:34:08.253Z,20.90
2022-10-18T19:37:16.475Z,21.52
2022-10-18T19:40:22.248Z,22.65
2022-10-18T19:43:27.766Z,22.25
2022-10-18T19:46:34.255Z,22.45
2022-10-18T19:49:39.529Z,22.17
2022-10-18T19:52:45.404Z,23.95
2022-10-18T19:55:51.259Z,23.83
2022-10-18T19:58:57.044Z,25.72
2022-10-18T20:02:02.493Z,24.32
2022-10-18T20:05:08.823Z,27.07
2022-10-18T20:08:15.491Z,25.70
2022-10-18T20:11:24.816Z,27.40
2022-10-18T20:14:30.971Z,22.52
2022-10-18T20:17:36.926Z,21.95
2022-10-18T20:20:47.290Z,21.33
2022-10-18T20:23:53.537Z,24.47
2022-10-18T20:27:00.363Z,23.52
2022-10-18T20:30:10.518Z,23.67
2022-10-18T20:33:14.639Z,23.98
2022-10-18T20:36:22.703Z,25.12
2022-10-18T20:39:28.239Z,23.35
2022-10-18T20:42:33.456Z,23.45
2022-10-18T20:45:31.897Z,21.82
2022-10-18T20:48:24.430Z,21.85
2022-10-18T20:51:30.224Z,22.82
2022-10-18T20:54:36.057Z,23.05
2022-10-18T20:57:37.076Z,22.75
2022-10-18T21:00:42.973Z,21.40
2022-10-18T21:03:47.992Z,23.25
2022-10-18T21:06:55.206Z,23.38
2022-10-18T21:10:00.136Z,22.00
2022-10-18T21:13:05.880Z,23.32
2022-10-18T21:16:12.067Z,21.93
2022-10-18T21:19:22.477Z,21.97
2022-10-18T21:25:26.140Z,21.15
2022-10-18T21:28:30.858Z,22.37
2022-10-18T21:31:45.794Z,21.70
2022-10-18T21:34:52.348Z,21.17
2022-10-18T21:37:59.195Z,20.65
2022-10-18T21:41:06.078Z,22.10
2022-10-18T21:44:12.777Z,22.17
2022-10-18T21:47:19.212Z,21.45
2022-10-18T21:50:25.792Z,21.93
2022-10-18T21:53:34.057Z,24.57
2022-10-18T21:56:42.217Z,23.27
2022-10-18T21:59:48.173Z,22.13
2022-10-18T22:02:47.016Z,22.52
2022-10-18T22:05:53.312Z,22.77
2022-10-18T22:09:07.346Z,22.07
2022-10-18T22:12:13.707Z,21.27
2022-10-18T22:15:19.433Z,23.07
2022-10-18T22:18:26.660Z,22.67
2022-10-18T22:21:33.268Z,22.95
2022-10-18T22:24:38.858Z,23.70
2022-10-18T22:27:45.606Z,22.70
2022-10-18T22:30:52.342Z,23.05
2022-10-18T22:33:58.717Z,22.87
2022-10-18T22:37:05.231Z,23.20
2022-10-18T22:40:11.197Z,22.48
2022-10-18T22:43:17.131Z,21.30
2022-10-18T22:46:25.067Z,22.77
2022-10-18T22:49:30.526Z,20.92
2022-10-18T22:52:36.277Z,22.13
2022-10-18T22:55:42.830Z,21.20
2022-10-18T22:58:49.282Z,21.17
2022-10-18T23:01:56.092Z,21.95
2022-10-18T23:05:03.280Z,21.20
2022-10-18T23:08:09.893Z,20.52
2022-10-18T23:11:15.883Z,19.87
2022-10-18T23:14:21.651Z,21.48
2022-10-18T23:17:27.381Z,23.55
2022-10-18T23:20:34.096Z,23.18
2022-10-18T23:23:41.974Z,23.75
2022-10-18T23:26:48.456Z,20.95
2022-10-18T23:29:54.510Z,21.45
2022-10-18T23:32:59.936Z,20.30
2022-10-18T23:36:05.428Z,21.20
2022-10-18T23:39:13.650Z,21.42
2022-10-18T23:42:20.174Z,22.05
2022-10-18T23:45:25.710Z,21.93
2022-10-18T23:48:31.478Z,19.67
2022-10-18T23:51:37.061Z,20.55
2022-10-18T23:57:48.520Z,21.82
